Time;durP1;ratioP1;P1;durP2;ratioP2;P2;SDS_P1;SDS_P2;PMS_P1;PMS_P2;Temp;Humidity;BMP_temperature;BMP_pressure;BME280_temperature;BME280_humidity;BME280_pressure;Samples;Min_cycle;Max_cycle;Signal;HPM_P1;HPM_P2
2022/01/30 00:01:53;;;;;;;0.40;0.40;;;6.80;95.80;;;;;;5042171;28;20078;-80
2022/01/30 00:04:19;;;;;;;0.70;0.50;;;6.80;95.90;;;;;;5041302;28;20541;-79
2022/01/30 00:06:45;;;;;;;0.75;0.50;;;6.80;96.00;;;;;;5039621;28;20058;-79
2022/01/30 00:09:17;;;;;;;1.85;0.63;;;6.80;96.10;;;;;;5040854;28;20045;-79
2022/01/30 00:11:47;;;;;;;;;;;6.80;96.30;;;;;;5039760;28;20363;-79
2022/01/30 00:14:16;;;;;;;0.63;0.50;;;6.80;96.30;;;;;;5025964;28;19909;-79
2022/01/30 00:16:42;;;;;;;0.52;0.40;;;6.80;96.40;;;;;;5033786;28;20022;-80
2022/01/30 00:19:21;;;;;;;4.65;0.60;;;6.70;96.60;;;;;;5017178;28;20025;-80
2022/01/30 00:21:52;;;;;;;0.98;0.52;;;6.80;96.50;;;;;;5025776;28;20025;-79
2022/01/30 00:24:33;;;;;;;0.38;0.38;;;6.70;96.70;;;;;;5040117;28;20033;-79
2022/01/30 00:26:58;;;;;;;0.30;0.30;;;6.70;96.90;;;;;;5021794;28;20052;-79
2022/01/30 00:29:24;;;;;;;0.60;0.40;;;6.70;97.00;;;;;;5038114;28;20026;-80
2022/01/30 00:31:50;;;;;;;1.40;0.40;;;6.70;97.00;;;;;;5038672;28;20022;-80
2022/01/30 00:34:16;;;;;;;0.32;0.30;;;6.70;97.10;;;;;;5039687;28;20021;-80
2022/01/30 00:36:41;;;;;;;0.40;0.38;;;6.70;97.20;;;;;;5041131;28;20064;-79
2022/01/30 00:39:07;;;;;;;0.43;0.32;;;6.70;97.20;;;;;;5041540;28;20022;-79
2022/01/30 00:41:33;;;;;;;0.82;0.43;;;6.70;97.30;;;;;;5041178;28;20025;-80
2022/01/30 00:43:59;;;;;;;0.60;0.25;;;6.70;97.50;;;;;;5040591;28;20049;-79
2022/01/30 00:46:24;;;;;;;0.35;0.32;;;6.60;97.60;;;;;;5040033;28;20030;-80
2022/01/30 00:48:50;;;;;;;0.47;0.45;;;6.60;97.60;;;;;;5041017;28;20109;-79
2022/01/30 00:51:17;;;;;;;0.55;0.40;;;6.60;97.60;;;;;;5023325;28;20041;-79
2022/01/30 00:53:43;;;;;;;0.45;0.40;;;6.60;97.70;;;;;;5013238;28;20018;-79
2022/01/30 00:56:10;;;;;;;0.38;0.38;;;6.60;97.60;;;;;;5020105;28;20228;-79
2022/01/30 00:58:36;;;;;;;0.68;0.40;;;6.70;97.50;;;;;;5020422;28;20532;-80
2022/01/30 01:01:01;;;;;;;0.30;0.30;;;6.60;97.60;;;;;;5003727;28;20076;-80
2022/01/30 01:03:27;;;;;;;0.40;0.40;;;6.60;97.80;;;;;;5019638;28;20032;-80
2022/01/30 01:05:53;;;;;;;0.38;0.30;;;6.60;97.80;;;;;;5019399;28;20505;-80
2022/01/30 01:08:32;;;;;;;0.22;0.20;;;6.60;97.70;;;;;;5019320;28;20022;-79
2022/01/30 01:11:26;;;;;;;0.65;0.30;;;6.60;97.60;;;;;;5021099;28;20018;-79
2022/01/30 01:14:07;;;;;;;0.82;0.28;;;6.60;97.60;;;;;;5021439;28;20126;-79
2022/01/30 01:24:47;;;;;;;0.30;0.22;;;6.60;97.60;;;;;;5022392;28;20061;-80
2022/01/30 01:27:13;;;;;;;1.38;0.40;;;6.70;97.50;;;;;;5018609;28;20061;-80
2022/01/30 01:29:39;;;;;;;0.38;0.38;;;6.70;97.40;;;;;;5006636;28;20459;-80
2022/01/30 01:32:05;;;;;;;0.30;0.30;;;6.70;97.30;;;;;;5023783;28;20026;-79
2022/01/30 01:34:34;;;;;;;0.13;0.10;;;6.70;97.30;;;;;;5023625;28;20022;-80
2022/01/30 01:37:00;;;;;;;0.30;0.25;;;6.60;97.30;;;;;;5021102;28;20026;-78
2022/01/30 01:39:27;;;;;;;0.20;0.20;;;6.60;97.30;;;;;;5018077;28;20108;-80
2022/01/30 01:41:53;;;;;;;0.63;0.63;;;6.70;97.30;;;;;;5020930;28;20022;-79
2022/01/30 01:44:31;;;;;;;0.50;0.20;;;6.70;97.20;;;;;;5025399;28;20025;-79
2022/01/30 01:46:57;;;;;;;0.38;0.30;;;6.70;97.20;;;;;;5025721;28;20030;-80
2022/01/30 01:49:28;;;;;;;0.30;0.20;;;6.60;97.20;;;;;;5018871;28;20026;-79
2022/01/30 01:52:18;;;;;;;0.40;0.40;;;6.60;97.00;;;;;;5030127;28;20030;-79
2022/01/30 01:54:52;;;;;;;0.52;0.20;;;6.70;97.00;;;;;;5031299;28;20079;-79
2022/01/30 01:57:18;;;;;;;2.50;0.32;;;6.70;97.00;;;;;;5033045;28;20052;-80
2022/01/30 01:59:45;;;;;;;0.20;0.20;;;6.70;96.90;;;;;;5028819;28;20037;-78
2022/01/30 02:02:11;;;;;;;0.40;0.30;;;6.70;97.00;;;;;;5030167;28;20333;-79
2022/01/30 02:04:39;;;;;;;0.20;0.20;;;6.70;96.90;;;;;;5024143;28;20018;-80
2022/01/30 02:09:44;;;;;;;0.30;0.20;;;6.60;97.00;;;;;;5041778;28;20090;-80
2022/01/30 02:12:33;;;;;;;0.30;0.30;;;6.60;97.00;;;;;;5038833;28;20036;-79
2022/01/30 02:25:57;;;;;;;0.30;0.30;;;6.60;96.90;;;;;;5021666;28;20102;-80
2022/01/30 02:28:25;;;;;;;0.40;0.40;;;6.60;96.90;;;;;;5021268;28;20026;-79
2022/01/30 02:31:11;;;;;;;0.52;0.30;;;6.60;96.90;;;;;;5004981;28;20030;-79
2022/01/30 02:33:36;;;;;;;0.70;0.40;;;6.60;96.80;;;;;;5021890;28;20056;-79
2022/01/30 02:36:03;;;;;;;0.10;0.10;;;6.60;96.80;;;;;;5021943;28;20022;-79
2022/01/30 02:38:28;;;;;;;0.40;0.40;;;6.60;96.50;;;;;;5023448;28;20071;-80
2022/01/30 02:40:57;;;;;;;0.30;0.30;;;6.60;96.50;;;;;;5021462;28;20081;-79
2022/01/30 02:43:28;;;;;;;0.22;0.17;;;6.60;96.50;;;;;;5020570;28;20022;-79
2022/01/30 02:46:25;;;;;;;0.32;0.30;;;6.60;96.60;;;;;;5003953;28;20120;-80
2022/01/30 02:48:53;;;;;;;0.20;0.20;;;6.60;96.80;;;;;;5019570;28;20084;-80
2022/01/30 02:51:23;;;;;;;0.30;0.30;;;6.60;96.60;;;;;;5022576;28;20129;-80
2022/01/30 02:54:11;;;;;;;0.22;0.22;;;6.60;96.50;;;;;;5021326;28;20018;-80
2022/01/30 02:56:36;;;;;;;0.68;0.20;;;6.60;96.70;;;;;;5020525;28;20042;-80
2022/01/30 02:59:02;;;;;;;0.20;0.20;;;6.60;96.50;;;;;;5024456;28;20029;-80
2022/01/30 03:01:28;;;;;;;0.22;0.20;;;6.50;96.60;;;;;;5021173;28;20033;-80
2022/01/30 03:03:53;;;;;;;0.25;0.10;;;6.50;96.60;;;;;;5021074;28;20072;-79
2022/01/30 03:06:19;;;;;;;0.22;0.20;;;6.50;96.70;;;;;;5023181;28;20113;-80
2022/01/30 03:08:45;;;;;;;0.20;0.20;;;6.50;96.70;;;;;;5022162;28;20165;-80
2022/01/30 03:11:10;;;;;;;0.20;0.20;;;6.50;96.80;;;;;;5021167;28;20069;-79
2022/01/30 03:13:36;;;;;;;0.25;0.25;;;6.50;96.70;;;;;;5026664;28;20073;-79
2022/01/30 03:16:03;;;;;;;0.20;0.20;;;6.50;96.90;;;;;;5025463;28;20026;-79
2022/01/30 03:18:30;;;;;;;1.60;0.52;;;6.50;97.00;;;;;;5024837;28;20030;-80
2022/01/30 03:20:57;;;;;;;0.20;0.20;;;6.50;96.80;;;;;;5019379;28;20018;-79
2022/01/30 03:23:22;;;;;;;0.15;0.15;;;6.50;96.90;;;;;;5006323;28;20037;-79
2022/01/30 03:25:56;;;;;;;0.15;0.15;;;6.40;97.00;;;;;;5022795;28;20034;-80
2022/01/30 03:28:23;;;;;;;0.60;0.55;;;6.50;96.80;;;;;;5020951;28;20018;-79
2022/01/30 03:30:53;;;;;;;0.20;0.20;;;6.50;96.60;;;;;;5032690;28;20108;-79
2022/01/30 03:33:19;;;;;;;0.88;0.20;;;6.50;96.60;;;;;;5022483;28;20172;-80
2022/01/30 03:35:45;;;;;;;0.50;0.40;;;6.50;96.60;;;;;;5031521;28;20122;-80
2022/01/30 03:38:11;;;;;;;0.13;0.13;;;6.50;96.70;;;;;;5031499;28;20030;-80
2022/01/30 03:40:37;;;;;;;1.00;0.30;;;6.50;96.60;;;;;;5024814;28;20030;-80
2022/01/30 03:43:04;;;;;;;0.35;0.17;;;6.50;96.60;;;;;;5023720;28;20035;-80
2022/01/30 03:45:29;;;;;;;0.55;0.30;;;6.50;96.60;;;;;;5040462;28;20036;-80
2022/01/30 03:47:56;;;;;;;0.63;0.25;;;6.50;96.70;;;;;;5022411;28;20025;-80
2022/01/30 03:50:24;;;;;;;2.28;0.40;;;6.50;96.70;;;;;;5030191;28;20053;-79
2022/01/30 03:52:51;;;;;;;0.77;0.30;;;6.60;96.50;;;;;;5007865;28;20104;-81
2022/01/30 03:55:17;;;;;;;0.50;0.30;;;6.50;96.50;;;;;;5000976;28;20069;-80
2022/01/30 03:57:42;;;;;;;0.73;0.28;;;6.60;96.30;;;;;;4999649;28;20431;-80
2022/01/30 04:00:09;;;;;;;1.00;0.40;;;6.60;96.20;;;;;;5000153;28;20034;-80
2022/01/30 04:02:35;;;;;;;0.65;0.22;;;6.60;96.00;;;;;;5000861;28;20076;-80
2022/01/30 04:05:00;;;;;;;0.93;0.15;;;6.60;95.90;;;;;;4998849;28;20029;-79
2022/01/30 04:07:27;;;;;;;0.68;0.20;;;6.60;95.90;;;;;;4999437;28;20018;-80
2022/01/30 04:09:53;;;;;;;0.40;0.20;;;6.50;96.00;;;;;;4999120;28;20097;-79
2022/01/30 04:12:19;;;;;;;0.32;0.25;;;6.40;96.30;;;;;;5002433;28;20064;-79
2022/01/30 04:14:45;;;;;;;0.85;0.35;;;6.30;96.60;;;;;;5021396;28;20068;-79
2022/01/30 04:17:13;;;;;;;0.10;0.10;;;6.40;96.60;;;;;;5035303;28;20096;-79
2022/01/30 04:19:39;;;;;;;0.20;0.20;;;6.40;96.50;;;;;;5026887;28;20022;-79
2022/01/30 04:22:05;;;;;;;0.28;0.22;;;6.40;96.80;;;;;;5019196;28;20033;-80
2022/01/30 04:24:31;;;;;;;0.28;0.28;;;6.40;96.80;;;;;;5005193;28;20030;-80
2022/01/30 04:26:57;;;;;;;0.30;0.30;;;6.40;97.00;;;;;;5018831;28;20057;-79
2022/01/30 04:29:23;;;;;;;0.65;0.20;;;6.40;96.90;;;;;;5016678;28;20030;-79
2022/01/30 04:31:50;;;;;;;0.70;0.30;;;6.40;97.00;;;;;;5018466;28;20471;-79
2022/01/30 04:34:17;;;;;;;0.43;0.35;;;6.40;97.00;;;;;;5001376;28;20034;-80
2022/01/30 04:36:57;;;;;;;0.38;0.20;;;6.40;97.20;;;;;;5000261;28;20037;-79
2022/01/30 04:58:33;;;;;;;1.45;0.55;;;6.40;97.00;;;;;;5017656;28;20395;-79
2022/01/30 05:03:53;;;;;;;1.17;0.60;;;6.50;97.20;;;;;;5020042;28;20046;-79
2022/01/30 05:06:30;;;;;;;0.95;0.80;;;6.50;97.40;;;;;;5018431;28;20037;-79
2022/01/30 05:08:56;;;;;;;1.98;0.68;;;6.40;97.80;;;;;;5018652;28;20030;-80
2022/01/30 05:11:21;;;;;;;0.68;0.57;;;6.40;98.00;;;;;;5018629;28;20048;-78
2022/01/30 05:13:49;;;;;;;1.45;0.90;;;6.30;98.30;;;;;;5020582;28;20077;-79
2022/01/30 05:16:17;;;;;;;0.60;0.60;;;6.30;98.50;;;;;;5022200;28;20049;-80
2022/01/30 05:18:42;;;;;;;1.73;1.00;;;6.30;98.60;;;;;;5031964;28;20064;-80
2022/01/30 05:21:09;;;;;;;0.70;0.70;;;6.30;98.90;;;;;;5014937;28;20022;-80
2022/01/30 05:23:44;;;;;;;1.30;0.82;;;6.30;98.60;;;;;;5017617;28;20034;-80
2022/01/30 05:26:14;;;;;;;2.47;0.73;;;6.30;98.70;;;;;;5007193;28;20052;-80
2022/01/30 05:28:40;;;;;;;3.35;0.80;;;6.20;98.70;;;;;;5028965;28;20105;-81
2022/01/30 05:31:06;;;;;;;0.70;0.70;;;6.30;98.30;;;;;;5036558;28;20052;-81
2022/01/30 05:33:31;;;;;;;0.75;0.70;;;6.30;98.20;;;;;;5048649;28;20446;-80
2022/01/30 05:35:57;;;;;;;0.73;0.63;;;6.30;98.00;;;;;;5032700;28;20022;-81
2022/01/30 05:38:27;;;;;;;0.60;0.60;;;6.40;97.90;;;;;;5045872;28;20021;-80
2022/01/30 05:40:53;;;;;;;0.70;0.70;;;6.40;97.90;;;;;;5028665;28;20037;-80
2022/01/30 05:43:19;;;;;;;0.75;0.70;;;6.40;98.00;;;;;;5038340;28;20025;-79
2022/01/30 05:45:53;;;;;;;0.77;0.77;;;6.30;98.10;;;;;;5006908;28;20042;-80
2022/01/30 05:48:19;;;;;;;4.18;1.15;;;6.30;98.30;;;;;;5024113;28;20057;-80
2022/01/30 05:50:45;;;;;;;1.38;0.90;;;6.30;98.80;;;;;;5023979;28;20443;-77
2022/01/30 05:53:13;;;;;;;1.45;1.00;;;6.20;99.40;;;;;;5021421;28;20014;-79
2022/01/30 05:55:38;;;;;;;2.95;1.33;;;6.10;99.90;;;;;;5022760;28;20037;-79
2022/01/30 05:58:04;;;;;;;1.17;1.08;;;6.00;99.90;;;;;;5021126;28;20111;-79
2022/01/30 06:00:30;;;;;;;1.45;1.30;;;5.90;99.90;;;;;;5004339;28;20103;-79
2022/01/30 06:02:56;;;;;;;2.50;1.38;;;5.90;99.90;;;;;;5004805;28;20029;-78
2022/01/30 06:05:24;;;;;;;2.60;1.40;;;5.80;99.90;;;;;;5021502;28;20446;-79
2022/01/30 06:07:53;;;;;;;2.33;1.30;;;5.70;99.90;;;;;;5023706;28;20074;-78
2022/01/30 06:10:23;;;;;;;2.33;1.40;;;5.70;99.90;;;;;;5024751;28;20023;-81
2022/01/30 06:12:49;;;;;;;1.70;1.35;;;5.70;99.90;;;;;;5026883;28;20068;-79
2022/01/30 06:15:16;;;;;;;1.27;1.17;;;5.60;99.90;;;;;;5036072;28;20030;-80
2022/01/30 06:17:43;;;;;;;1.50;1.35;;;5.60;99.90;;;;;;5043764;28;20046;-80
2022/01/30 06:20:10;;;;;;;1.52;1.35;;;5.60;99.90;;;;;;5027173;28;20090;-80
2022/01/30 06:22:37;;;;;;;2.10;1.27;;;5.50;99.90;;;;;;5012971;28;20017;-80
2022/01/30 06:25:05;;;;;;;1.00;1.00;;;5.50;99.90;;;;;;5024602;28;20029;-80
2022/01/30 06:27:30;;;;;;;1.58;1.48;;;5.60;99.90;;;;;;5034473;28;20133;-80
2022/01/30 06:29:56;;;;;;;1.50;1.40;;;5.60;99.90;;;;;;5034103;28;20022;-80
2022/01/30 06:32:22;;;;;;;2.03;1.40;;;5.60;99.90;;;;;;5031961;28;20054;-79
2022/01/30 06:34:48;;;;;;;1.50;1.40;;;5.60;99.90;;;;;;5033114;28;20104;-79
2022/01/30 06:37:13;;;;;;;1.90;1.63;;;5.60;99.90;;;;;;5033006;28;20026;-79
2022/01/30 06:39:39;;;;;;;1.70;1.50;;;5.60;99.90;;;;;;5029333;28;20049;-80
2022/01/30 06:42:06;;;;;;;2.28;1.42;;;5.60;99.90;;;;;;5028443;28;20046;-80
2022/01/30 06:44:32;;;;;;;1.77;1.58;;;5.50;99.90;;;;;;5020409;28;20079;-78
2022/01/30 06:46:58;;;;;;;2.22;2.03;;;5.50;99.90;;;;;;5002893;28;20030;-80
2022/01/30 06:49:23;;;;;;;1.48;1.38;;;5.40;99.90;;;;;;5029335;28;20030;-79
2022/01/30 06:51:49;;;;;;;2.47;2.20;;;5.40;99.90;;;;;;5030594;28;20029;-80
2022/01/30 06:54:15;;;;;;;2.92;1.80;;;5.40;99.90;;;;;;5029041;28;20052;-80
2022/01/30 06:56:40;;;;;;;3.78;2.10;;;5.40;99.90;;;;;;5029626;28;20082;-80
2022/01/30 06:59:06;;;;;;;1.80;1.65;;;5.40;99.90;;;;;;5027737;28;20048;-80
2022/01/30 07:01:32;;;;;;;2.55;1.90;;;5.40;99.90;;;;;;5031012;28;20034;-80
2022/01/30 07:04:02;;;;;;;1.60;1.50;;;5.40;99.90;;;;;;5012742;28;20034;-80
2022/01/30 07:06:27;;;;;;;3.17;1.40;;;5.50;99.90;;;;;;5014205;28;20030;-79
2022/01/30 07:08:53;;;;;;;1.65;1.30;;;5.50;99.90;;;;;;5013226;28;20037;-83
2022/01/30 07:11:20;;;;;;;1.20;1.10;;;5.60;99.90;;;;;;5010632;28;20460;-81
2022/01/30 07:13:46;;;;;;;1.05;1.02;;;5.60;99.90;;;;;;5020481;28;20097;-80
2022/01/30 07:16:12;;;;;;;1.55;1.23;;;5.70;99.90;;;;;;5008863;28;20081;-81
2022/01/30 07:18:38;;;;;;;1.27;1.00;;;5.70;99.90;;;;;;5006159;28;20450;-82
2022/01/30 07:21:04;;;;;;;1.25;1.00;;;5.60;99.90;;;;;;5006621;28;20029;-81
2022/01/30 07:23:30;;;;;;;1.10;1.00;;;5.70;99.90;;;;;;5007048;28;20451;-81
2022/01/30 07:25:56;;;;;;;2.30;1.00;;;5.60;99.90;;;;;;5006911;28;20026;-81
2022/01/30 07:28:24;;;;;;;0.90;0.90;;;5.50;99.90;;;;;;5006837;28;20041;-82
2022/01/30 07:30:53;;;;;;;1.30;1.02;;;5.60;99.90;;;;;;4990207;28;20030;-80
2022/01/30 07:33:18;;;;;;;0.80;0.80;;;5.70;99.90;;;;;;5002075;28;20033;-80
2022/01/30 07:35:44;;;;;;;0.85;0.80;;;5.60;99.90;;;;;;5010081;28;20030;-81
2022/01/30 07:38:10;;;;;;;1.17;0.80;;;5.60;99.90;;;;;;5026203;28;20022;-81
2022/01/30 07:40:37;;;;;;;1.08;0.80;;;5.70;99.90;;;;;;5025388;28;20036;-79
2022/01/30 07:43:03;;;;;;;2.67;1.00;;;5.80;99.90;;;;;;5027478;28;20084;-80
2022/01/30 07:45:29;;;;;;;4.50;0.70;;;5.70;99.90;;;;;;5006845;28;20045;-79
2022/01/30 07:47:55;;;;;;;0.80;0.80;;;5.80;99.90;;;;;;5009299;28;20028;-80
2022/01/30 07:50:20;;;;;;;0.63;0.63;;;5.80;99.90;;;;;;5010203;28;20030;-80
2022/01/30 07:52:46;;;;;;;1.70;0.70;;;5.80;99.90;;;;;;5011698;28;20037;-80
2022/01/30 07:55:12;;;;;;;1.58;0.52;;;5.90;99.90;;;;;;4993019;28;20025;-79
2022/01/30 07:57:38;;;;;;;1.73;0.70;;;5.90;99.90;;;;;;5014658;28;20082;-81
2022/01/30 08:00:05;;;;;;;0.70;0.70;;;6.00;99.90;;;;;;5013045;28;20034;-79
2022/01/30 08:02:31;;;;;;;2.00;0.80;;;6.00;99.90;;;;;;5011838;28;20045;-80
2022/01/30 08:04:56;;;;;;;1.70;0.95;;;6.00;99.90;;;;;;5012404;28;20026;-80
2022/01/30 08:07:23;;;;;;;3.15;0.70;;;6.00;99.90;;;;;;5009385;28;20026;-79
2022/01/30 08:09:48;;;;;;;2.10;0.70;;;6.20;99.90;;;;;;5008220;28;20022;-80
2022/01/30 08:12:19;;;;;;;3.30;0.90;;;6.30;98.90;;;;;;5010555;28;20101;-79
2022/01/30 08:14:45;;;;;;;4.22;0.90;;;6.30;97.90;;;;;;5008215;28;20054;-80
2022/01/30 08:17:17;;;;;;;8.43;1.45;;;6.30;96.70;;;;;;5031692;28;20022;-79
2022/01/30 08:19:44;;;;;;;6.00;1.20;;;6.30;96.50;;;;;;5028939;28;20022;-79
2022/01/30 08:22:10;;;;;;;4.28;1.20;;;6.30;96.60;;;;;;5023677;28;20475;-80
2022/01/30 08:24:36;;;;;;;2.47;0.88;;;6.30;96.30;;;;;;5031251;28;20025;-81
2022/01/30 08:27:02;;;;;;;4.07;1.17;;;6.30;96.40;;;;;;5032674;28;20056;-82
2022/01/30 08:29:27;;;;;;;7.95;1.80;;;6.30;96.00;;;;;;5030994;28;21024;-84
2022/01/30 08:32:02;;;;;;;7.97;0.90;;;6.30;96.40;;;;;;5045667;28;20029;-83
2022/01/30 08:34:28;;;;;;;2.85;0.77;;;6.20;96.60;;;;;;5027741;28;20033;-84
2022/01/30 08:36:54;;;;;;;2.70;0.70;;;6.20;96.80;;;;;;5020959;28;20030;-83
2022/01/30 08:39:19;;;;;;;1.33;0.60;;;6.30;97.00;;;;;;5007559;28;20058;-82
2022/01/30 08:41:46;;;;;;;3.38;0.65;;;6.40;96.80;;;;;;5007676;28;20050;-84
2022/01/30 08:44:12;;;;;;;1.92;0.82;;;6.40;96.80;;;;;;5019111;28;20037;-83
2022/01/30 08:46:37;;;;;;;1.10;0.57;;;6.50;96.50;;;;;;5014692;28;20034;-84
2022/01/30 08:49:03;;;;;;;1.73;0.65;;;6.60;96.30;;;;;;5007389;28;20031;-83
2022/01/30 08:51:29;;;;;;;3.70;0.50;;;6.60;96.30;;;;;;5007422;28;20038;-82
2022/01/30 08:53:55;;;;;;;1.98;0.47;;;6.60;96.20;;;;;;5007407;28;20023;-84
2022/01/30 08:56:23;;;;;;;1.33;0.60;;;6.70;96.30;;;;;;5007324;28;20046;-83
2022/01/30 08:58:50;;;;;;;1.63;0.55;;;6.80;96.00;;;;;;5011809;28;20022;-83
2022/01/30 09:01:16;;;;;;;1.45;0.60;;;6.90;96.00;;;;;;5025657;28;20037;-82
2022/01/30 09:03:43;;;;;;;0.73;0.60;;;7.10;95.70;;;;;;5007837;28;20034;-83
2022/01/30 09:06:10;;;;;;;3.03;0.73;;;7.30;95.30;;;;;;5024555;28;20029;-82
2022/01/30 09:08:36;;;;;;;2.92;0.70;;;7.30;95.20;;;;;;5024002;28;20080;-82
2022/01/30 09:11:02;;;;;;;4.43;0.90;;;7.20;95.20;;;;;;5024642;28;20026;-82
2022/01/30 09:13:28;;;;;;;1.15;0.60;;;7.10;95.40;;;;;;5024181;28;20026;-83
2022/01/30 09:15:57;;;;;;;1.83;0.70;;;7.20;94.90;;;;;;5001414;28;20455;-83
2022/01/30 09:18:25;;;;;;;1.83;0.50;;;;;;;;;;4988687;28;20184;-83
2022/01/30 09:20:51;;;;;;;3.17;0.68;;;7.70;94.10;;;;;;5023391;28;20030;-82
2022/01/30 09:23:17;;;;;;;2.75;0.75;;;7.90;93.40;;;;;;5024751;28;20156;-82
2022/01/30 09:25:43;;;;;;;3.75;1.05;;;8.10;92.50;;;;;;5024744;28;20026;-81
2022/01/30 09:28:08;;;;;;;7.53;1.20;;;8.10;92.10;;;;;;5006346;28;20030;-83
2022/01/30 09:30:34;;;;;;;3.80;0.93;;;8.20;91.20;;;;;;5023509;28;20022;-82
2022/01/30 09:33:00;;;;;;;2.65;0.85;;;8.00;90.10;;;;;;5023545;28;20030;-82
2022/01/30 09:35:26;;;;;;;11.00;1.38;;;7.80;88.30;;;;;;5025459;28;20068;-83
2022/01/30 09:37:52;;;;;;;6.07;1.08;;;7.90;84.80;;;;;;5026632;28;20022;-83
2022/01/30 09:40:18;;;;;;;6.90;1.10;;;7.70;81.00;;;;;;5026584;28;20036;-84
2022/01/30 09:42:46;;;;;;;11.82;1.35;;;7.50;81.60;;;;;;5024918;28;20022;-82
2022/01/30 09:45:14;;;;;;;6.82;1.60;;;7.30;80.90;;;;;;5032404;28;20014;-84
2022/01/30 09:47:40;;;;;;;5.90;1.60;;;7.20;81.40;;;;;;5032973;28;20052;-84
2022/01/30 09:50:08;;;;;;;6.43;1.58;;;7.00;82.40;;;;;;5033883;28;20036;-84
2022/01/30 09:52:34;;;;;;;6.60;1.30;;;6.90;84.50;;;;;;5018154;28;20038;-83
2022/01/30 09:55:00;;;;;;;4.25;1.27;;;7.00;86.30;;;;;;5017747;28;20026;-83
2022/01/30 09:57:26;;;;;;;8.43;1.20;;;7.70;85.20;;;;;;5016684;28;20025;-82
2022/01/30 09:59:51;;;;;;;5.20;1.30;;;8.00;82.60;;;;;;5032872;28;20030;-82
2022/01/30 10:02:18;;;;;;;9.25;1.35;;;7.80;82.40;;;;;;4999718;28;20128;-81
2022/01/30 10:04:45;;;;;;;4.93;1.23;;;7.60;81.20;;;;;;5016205;28;20109;-83
2022/01/30 10:07:16;;;;;;;5.70;1.45;;;7.30;81.20;;;;;;4990847;28;20034;-83
2022/01/30 10:09:48;;;;;;;7.45;1.55;;;7.20;80.40;;;;;;5008209;28;20070;-82
2022/01/30 10:12:19;;;;;;;7.05;1.58;;;7.10;81.50;;;;;;5005094;28;20030;-82
2022/01/30 10:15:10;;;;;;;7.60;1.75;;;7.10;81.40;;;;;;5028078;28;20029;-82
2022/01/30 10:17:39;;;;;;;8.48;2.08;;;7.10;81.20;;;;;;5007133;28;20499;-83
2022/01/30 10:20:17;;;;;;;5.28;1.55;;;7.10;80.60;;;;;;5022688;28;20526;-82
2022/01/30 10:23:08;;;;;;;7.45;1.75;;;7.30;80.50;;;;;;5021939;28;20050;-83
2022/01/30 10:25:54;;;;;;;6.28;1.50;;;7.20;80.00;;;;;;5006085;28;20102;-81
2022/01/30 10:28:25;;;;;;;9.45;1.63;;;7.40;81.50;;;;;;5005630;28;20026;-83
2022/01/30 10:30:57;;;;;;;6.60;1.90;;;7.60;80.30;;;;;;5006287;28;20018;-83
2022/01/30 10:33:41;;;;;;;6.32;1.92;;;7.70;80.10;;;;;;5015523;28;20026;-83
2022/01/30 10:36:09;;;;;;;6.90;1.95;;;7.80;80.70;;;;;;5007816;28;20037;-82
2022/01/30 10:38:41;;;;;;;7.18;1.40;;;8.00;79.60;;;;;;5009811;28;20227;-81
2022/01/30 10:41:14;;;;;;;13.27;2.15;;;8.10;79.40;;;;;;5007770;28;20026;-83
2022/01/30 10:43:51;;;;;;;6.38;1.55;;;8.10;79.40;;;;;;5007974;28;20402;-83
2022/01/30 10:46:27;;;;;;;5.38;1.77;;;8.00;79.50;;;;;;5026580;28;20022;-82
2022/01/30 10:49:20;;;;;;;5.22;1.23;;;8.00;80.10;;;;;;5026092;28;20022;-83
2022/01/30 10:51:59;;;;;;;;;;;8.00;80.00;;;;;;5025417;28;20029;-83
2022/01/30 10:54:29;;;;;;;7.30;1.58;;;8.00;80.70;;;;;;5004937;28;20275;-83
2022/01/30 10:57:03;;;;;;;6.18;1.80;;;8.00;81.20;;;;;;5004228;28;20109;-82
2022/01/30 10:59:29;;;;;;;7.72;1.40;;;7.90;81.50;;;;;;4987255;28;20053;-83
2022/01/30 11:02:09;;;;;;;10.43;1.67;;;7.90;81.90;;;;;;5015096;28;20034;-83
2022/01/30 11:04:34;;;;;;;6.25;1.73;;;8.10;81.60;;;;;;5014430;28;20026;-83
2022/01/30 11:07:04;;;;;;;9.80;3.05;;;8.30;81.70;;;;;;5011260;28;20076;-82
2022/01/30 11:09:38;;;;;;;8.88;2.05;;;8.60;80.80;;;;;;5011670;28;20023;-84
2022/01/30 11:12:09;;;;;;;8.57;2.72;;;8.80;79.70;;;;;;5009292;28;20383;-83
2022/01/30 11:14:39;;;;;;;6.22;1.65;;;8.90;78.30;;;;;;5012193;28;20030;-83
2022/01/30 11:17:09;;;;;;;7.35;1.80;;;8.80;78.30;;;;;;5011707;28;20041;-84
2022/01/30 11:19:41;;;;;;;6.43;1.63;;;8.90;77.80;;;;;;4995721;28;20030;-82
2022/01/30 11:22:15;;;;;;;5.35;1.45;;;8.80;77.40;;;;;;5005403;28;20344;-82
2022/01/30 11:25:03;;;;;;;12.10;2.08;;;8.70;78.70;;;;;;5003755;28;20030;-82
2022/01/30 11:27:29;;;;;;;5.70;1.83;;;8.50;78.70;;;;;;5006661;28;20030;-84
2022/01/30 11:29:55;;;;;;;6.97;2.13;;;8.30;79.60;;;;;;5008980;28;20018;-82
2022/01/30 11:32:22;;;;;;;6.90;1.88;;;8.20;80.70;;;;;;5026574;28;20021;-82
2022/01/30 11:34:48;;;;;;;8.90;1.95;;;8.10;80.40;;;;;;5025660;28;20501;-82
2022/01/30 11:37:17;;;;;;;8.75;1.92;;;8.00;81.10;;;;;;5025700;28;20030;-84
2022/01/30 11:39:46;;;;;;;5.70;1.45;;;7.90;82.10;;;;;;5027389;28;20422;-84
2022/01/30 11:42:33;;;;;;;6.75;2.17;;;7.90;81.90;;;;;;5025625;28;20056;-82
2022/01/30 11:45:04;;;;;;;7.38;2.47;;;8.20;81.80;;;;;;4998838;28;20046;-82
2022/01/30 11:47:51;;;;;;;7.07;1.55;;;8.50;80.60;;;;;;5006393;28;20026;-83
2022/01/30 11:50:24;;;;;;;9.70;1.77;;;8.90;79.10;;;;;;5013645;23;20042;-77
2022/01/30 11:52:54;;;;;;;14.10;2.38;;;9.00;76.40;;;;;;5012601;28;20026;-78
2022/01/30 11:55:54;;;;;;;6.88;1.45;;;9.00;75.10;;;;;;5018663;28;20120;-80
2022/01/30 11:58:32;;;;;;;12.77;1.73;;;9.00;74.30;;;;;;5019473;28;20076;-79
2022/01/30 12:01:00;;;;;;;4.80;1.30;;;9.00;72.60;;;;;;5002012;28;20026;-80
2022/01/30 12:03:25;;;;;;;4.32;1.10;;;8.90;70.40;;;;;;5007355;28;20025;-80
2022/01/30 12:05:52;;;;;;;7.25;1.30;;;8.90;69.90;;;;;;5031877;28;20033;-80
2022/01/30 12:08:46;;;;;;;4.38;1.00;;;8.70;67.60;;;;;;5038219;28;20045;-79
2022/01/30 12:11:35;;;;;;;5.18;1.48;;;8.60;66.20;;;;;;5046857;28;20032;-79
2022/01/30 12:14:30;;;;;;;4.00;1.10;;;8.60;66.70;;;;;;5032291;28;20118;-80
2022/01/30 12:17:00;;;;;;;6.20;1.20;;;8.70;66.20;;;;;;5036652;28;20025;-79
2022/01/30 12:19:41;;;;;;;12.35;2.13;;;8.80;67.40;;;;;;5018496;28;20097;-80
2022/01/30 12:22:16;;;;;;;11.00;2.30;;;8.80;68.10;;;;;;5007245;28;20033;-79
2022/01/30 12:24:43;;;;;;;11.75;1.90;;;8.70;69.20;;;;;;4996467;28;20026;-79
2022/01/30 12:27:09;;;;;;;5.43;1.58;;;8.60;69.00;;;;;;4997147;28;20027;-81
2022/01/30 12:29:35;;;;;;;4.15;1.25;;;8.60;68.50;;;;;;4996183;28;20033;-78
2022/01/30 12:32:20;;;;;;;7.15;1.60;;;8.60;68.60;;;;;;4996878;28;20395;-80
2022/01/30 12:35:01;;;;;;;6.82;1.70;;;8.70;67.70;;;;;;4997162;28;20364;-80
2022/01/30 12:37:32;;;;;;;7.47;1.90;;;8.70;67.90;;;;;;4997058;28;20483;-81
2022/01/30 12:40:14;;;;;;;6.43;1.73;;;8.70;67.50;;;;;;4996597;28;20023;-81
2022/01/30 12:42:40;;;;;;;11.35;1.63;;;8.70;67.50;;;;;;4997062;28;20022;-82
2022/01/30 12:45:09;;;;;;;6.63;1.80;;;8.80;67.70;;;;;;5014381;28;20447;-80
2022/01/30 12:47:52;;;;;;;5.57;1.17;;;8.80;66.50;;;;;;5016729;28;20121;-80
2022/01/30 12:50:20;;;;;;;3.85;1.20;;;8.90;65.20;;;;;;5030427;28;20053;-79
2022/01/30 12:52:49;;;;;;;4.40;1.30;;;8.90;64.80;;;;;;5015999;28;20076;-80
2022/01/30 12:55:17;;;;;;;6.25;1.00;;;8.80;64.10;;;;;;5015603;28;20026;-81
2022/01/30 12:57:45;;;;;;;7.00;1.30;;;8.70;65.20;;;;;;5017650;28;20098;-82
2022/01/30 13:00:13;;;;;;;5.53;1.20;;;8.60;65.20;;;;;;5010359;28;20045;-81
2022/01/30 13:02:55;;;;;;;5.80;1.73;;;8.50;66.30;;;;;;5014049;28;20037;-79
2022/01/30 13:05:22;;;;;;;4.22;1.50;;;8.50;66.30;;;;;;4998510;28;20026;-79
2022/01/30 13:07:53;;;;;;;5.50;1.35;;;8.70;66.30;;;;;;5018572;28;20030;-81
2022/01/30 13:10:19;;;;;;;3.78;1.40;;;8.90;65.10;;;;;;5021817;28;20049;-80
2022/01/30 13:12:45;;;;;;;6.30;1.83;;;8.90;65.10;;;;;;5021926;28;20394;-80
2022/01/30 13:15:14;;;;;;;4.78;1.63;;;9.00;64.90;;;;;;5022031;28;20468;-82
2022/01/30 13:17:41;;;;;;;5.47;1.20;;;9.00;65.00;;;;;;5015408;28;20034;-82
2022/01/30 13:20:09;;;;;;;6.38;1.40;;;9.10;64.60;;;;;;5019291;28;20487;-80
2022/01/30 13:22:42;;;;;;;6.10;1.40;;;9.30;63.00;;;;;;5010218;28;20025;-80
2022/01/30 13:25:10;;;;;;;4.47;1.25;;;9.50;62.10;;;;;;5015362;28;20030;-80
2022/01/30 13:27:38;;;;;;;4.57;0.95;;;9.70;60.70;;;;;;5018625;28;20034;-79
2022/01/30 13:30:05;;;;;;;4.78;1.10;;;9.90;60.30;;;;;;5020438;28;20025;-79
2022/01/30 13:32:31;;;;;;;10.55;1.77;;;9.80;61.00;;;;;;5018274;28;20315;-79
2022/01/30 13:34:58;;;;;;;9.57;1.75;;;9.80;61.70;;;;;;5019230;28;20486;-81
2022/01/30 13:37:24;;;;;;;4.80;1.42;;;9.80;62.10;;;;;;5027000;28;20116;-80
2022/01/30 13:45:03;;;;;;;9.35;2.85;;;9.20;64.60;;;;;;5024436;28;20026;-80
2022/01/30 13:47:29;;;;;;;4.50;1.40;;;9.00;64.20;;;;;;5021591;28;20034;-80
2022/01/30 13:49:55;;;;;;;5.22;1.27;;;9.00;64.80;;;;;;5021837;28;20033;-81
2022/01/30 13:52:21;;;;;;;7.60;1.48;;;9.20;64.10;;;;;;5021620;28;20025;-80
2022/01/30 13:55:05;;;;;;;5.13;1.95;;;9.30;64.40;;;;;;5004499;28;20363;-79
2022/01/30 13:57:34;;;;;;;11.02;2.03;;;9.40;64.20;;;;;;5022203;28;20098;-81